This is the latest recevied weather packets stored in our database for station/object GAPWX. If no packets are shown the sender has not sent any weather packets the latest 10 day(s).
| Time | Temp. | Humidity | Pressure | Rain* | Wind** | Luminosity | Snow |
|---|---|---|---|---|---|---|---|
| 1777530251 | 5.56° C | 66% | 1017.7 hPa | 0 mm | - | - | - |
| 1777529950 | 5.56° C | 66% | 1017.7 hPa | 0 mm | - | - | - |
| 1777529673 | 6.11° C | 66% | 1017.7 hPa | 0 mm | - | - | - |
| 1777529348 | 6.11° C | 66% | 1017.7 hPa | 0 mm | - | - | - |
| 1777529096 | 6.11° C | 65% | 1017.7 hPa | 0 mm | - | - | - |
| 1777529096 | 6.11° C | 65% | 1017.6 hPa | 0 mm | - | - | - |
| 1777529045 | 6.11° C | 65% | 1017.6 hPa | 0 mm | - | - | - |
| 1777528746 | 6.11° C | 65% | 1017.7 hPa | 0 mm | - | - | - |
| 1777528443 | 6.11° C | 65% | 1017.7 hPa | 0 mm | - | - | - |
| 1777528142 | 6.11° C | 65% | 1017.8 hPa | 0 mm | - | - | - |
| 1777527841 | 6.67° C | 65% | 1017.8 hPa | 0 mm | - | - | - |
| 1777527540 | 6.67° C | 65% | 1017.7 hPa | 0 mm | - | - | - |
| 1777524225 | 7.78° C | 63% | 1017.9 hPa | 0 mm | - | - | - |
| 1777523663 | 7.78° C | 62% | 1017.8 hPa | 0 mm | - | - | - |
| 1777523620 | 7.78° C | 62% | 1017.8 hPa | 0 mm | - | - | - |
| 1777499516 | 15.56° C | 44% | 1017.5 hPa | 0 mm | - | - | - |
| 1777498910 | 15.56° C | 44% | 1017.5 hPa | 0 mm | - | - | - |
| 1777495594 | 16.11° C | 40% | 1017.3 hPa | 0 mm | - | - | - |
| 1777495292 | 15.56° C | 40% | 1017.3 hPa | 0 mm | - | - | - |
| 1777494995 | 15.56° C | 40% | 1017.3 hPa | 0 mm | - | - | - |
| 1777493184 | 15.56° C | 42% | 1017.6 hPa | 0 mm | - | - | - |
| 1777492890 | 15.56° C | 42% | 1017.6 hPa | 0 mm | - | - | - |
| 1777490471 | 14.44° C | 43% | 1018.1 hPa | 0 mm | - | - | - |
| 1777489568 | 14.44° C | 42% | 1018.1 hPa | 0 mm | - | - | - |
| 1777488060 | 13.89° C | 46% | 1018.2 hPa | 0 mm | - | - | - |
* Rain since midnight (hover to see other rain measurements)
** Current wind speed in m/s (hover to see current wind gust speed)